createdAt,value
2024-03-02T00:02:11.414Z,13.80
2024-03-02T00:05:19.507Z,13.80
2024-03-02T00:08:27.146Z,13.80
2024-03-02T00:11:29.529Z,13.80
2024-03-02T00:14:32.092Z,13.80
2024-03-02T00:17:34.574Z,13.80
2024-03-02T00:20:36.935Z,13.80
2024-03-02T00:23:40.060Z,13.70
2024-03-02T00:26:46.361Z,13.60
2024-03-02T00:29:48.742Z,13.60
2024-03-02T00:32:53.921Z,13.50
2024-03-02T00:35:56.611Z,13.40
2024-03-02T00:38:59.137Z,13.40
2024-03-02T00:42:01.384Z,13.40
2024-03-02T00:45:10.283Z,13.30
2024-03-02T00:48:12.583Z,13.20
2024-03-02T00:51:14.787Z,13.20
2024-03-02T00:54:20.324Z,13.20
2024-03-02T00:57:24.249Z,13.10
2024-03-02T01:00:26.407Z,13.10
2024-03-02T01:03:28.498Z,13.00
2024-03-02T01:06:31.315Z,12.90
2024-03-02T01:09:33.490Z,12.90
2024-03-02T01:12:35.866Z,12.90
2024-03-02T01:15:38.070Z,12.90
2024-03-02T01:18:40.264Z,12.90
2024-03-02T01:21:42.458Z,12.90
2024-03-02T01:24:44.712Z,12.80
2024-03-02T01:27:50.373Z,12.80
2024-03-02T01:30:53.076Z,12.80
2024-03-02T01:33:55.280Z,12.80
2024-03-02T01:36:57.401Z,12.70
2024-03-02T01:39:59.819Z,12.70
2024-03-02T01:43:03.548Z,12.80
2024-03-02T01:46:06.018Z,12.70
2024-03-02T01:49:08.323Z,12.70
2024-03-02T01:52:10.499Z,12.70
2024-03-02T01:55:12.608Z,12.70
2024-03-02T01:58:15.002Z,12.70
2024-03-02T02:01:18.159Z,12.70
2024-03-02T02:04:22.862Z,12.70
2024-03-02T02:07:24.991Z,12.70
2024-03-02T02:10:27.062Z,12.80
2024-03-02T02:13:29.272Z,12.80
2024-03-02T02:16:31.383Z,12.80
2024-03-02T02:19:33.631Z,12.80
2024-03-02T02:22:35.707Z,12.80
2024-03-02T02:25:37.850Z,12.80
2024-03-02T02:28:40.119Z,12.80
2024-03-02T02:31:43.368Z,12.80
2024-03-02T02:34:45.594Z,12.70
2024-03-02T02:37:48.715Z,12.70
2024-03-02T02:40:50.791Z,12.60
2024-03-02T02:43:52.846Z,12.60
2024-03-02T02:46:55.056Z,12.60
2024-03-02T02:49:57.261Z,12.50
2024-03-02T02:52:59.437Z,12.50
2024-03-02T02:56:01.496Z,12.50
2024-03-02T02:59:03.585Z,12.50
2024-03-02T03:02:06.356Z,12.50
2024-03-02T03:05:13.939Z,12.50
2024-03-02T03:08:17.248Z,12.50
2024-03-02T03:11:19.506Z,12.50
2024-03-02T03:14:21.836Z,12.50
2024-03-02T03:17:24.416Z,12.50
2024-03-02T03:20:28.330Z,12.50
2024-03-02T03:23:30.495Z,12.50
2024-03-02T03:26:32.540Z,12.40
2024-03-02T03:29:37.255Z,12.40
2024-03-02T03:32:39.381Z,12.40
2024-03-02T03:35:41.472Z,12.40
2024-03-02T03:38:43.519Z,12.40
2024-03-02T03:41:45.838Z,12.30
2024-03-02T03:44:47.978Z,12.30
2024-03-02T03:47:50.175Z,12.30
2024-03-02T03:50:52.296Z,12.30
2024-03-02T03:53:54.424Z,12.30
2024-03-02T03:56:57.540Z,12.30
2024-03-02T03:59:59.805Z,12.30
2024-03-02T04:03:01.897Z,12.30
2024-03-02T04:06:04.717Z,12.30
2024-03-02T04:09:06.776Z,12.30
2024-03-02T04:12:09.093Z,12.30
2024-03-02T04:15:11.343Z,12.30
2024-03-02T04:18:13.681Z,12.30
2024-03-02T04:21:16.072Z,12.30
2024-03-02T04:24:18.348Z,12.30
2024-03-02T04:27:20.486Z,12.30
2024-03-02T04:30:22.695Z,12.20
2024-03-02T04:33:24.768Z,12.20
2024-03-02T04:36:26.980Z,12.20
2024-03-02T04:39:29.800Z,12.20
2024-03-02T04:42:32.036Z,12.20
2024-03-02T04:45:34.277Z,12.20
2024-03-02T04:48:36.632Z,12.20
2024-03-02T04:51:38.785Z,12.10
2024-03-02T04:54:59.514Z,12.10
2024-03-02T04:58:02.652Z,12.10
2024-03-02T05:01:05.258Z,12.10
2024-03-02T05:04:07.344Z,12.10
2024-03-02T05:07:09.526Z,12.20
2024-03-02T05:10:15.710Z,12.20
2024-03-02T05:13:18.836Z,12.20
2024-03-02T05:16:22.008Z,12.20
2024-03-02T05:19:26.663Z,12.20
2024-03-02T05:22:30.033Z,12.20
2024-03-02T05:25:32.104Z,12.20
2024-03-02T05:28:34.282Z,12.10
2024-03-02T05:31:37.901Z,12.20
2024-03-02T05:34:40.096Z,12.20
2024-03-02T05:37:42.285Z,12.30
2024-03-02T05:40:44.343Z,12.40
2024-03-02T05:43:46.474Z,12.40
2024-03-02T05:46:48.521Z,12.50
2024-03-02T05:49:50.776Z,12.50
2024-03-02T05:52:54.241Z,12.50
2024-03-02T05:55:57.236Z,12.50
2024-03-02T05:59:13.648Z,12.50
2024-03-02T06:02:15.927Z,12.50
2024-03-02T06:05:20.020Z,12.50
2024-03-02T06:08:22.324Z,12.50
2024-03-02T06:11:24.475Z,12.60
2024-03-02T06:14:26.760Z,12.50
2024-03-02T06:17:29.066Z,12.60
2024-03-02T06:20:36.772Z,12.50
2024-03-02T06:23:39.354Z,12.50
2024-03-02T06:26:44.031Z,12.50
2024-03-02T06:29:46.122Z,12.50
2024-03-02T06:32:49.696Z,12.40
2024-03-02T06:35:51.896Z,12.40
2024-03-02T06:38:54.006Z,12.40
2024-03-02T06:41:56.222Z,12.30
2024-03-02T06:44:58.417Z,12.40
2024-03-02T06:48:00.677Z,12.40
2024-03-02T06:51:02.943Z,12.40
2024-03-02T06:54:06.234Z,12.50
2024-03-02T06:57:08.278Z,12.50
2024-03-02T07:00:10.779Z,12.50
2024-03-02T07:03:13.846Z,12.50
2024-03-02T07:06:16.028Z,12.50
2024-03-02T07:09:18.684Z,12.50
2024-03-02T07:12:20.828Z,12.50
2024-03-02T07:15:28.775Z,12.50
2024-03-02T07:18:43.022Z,12.50
2024-03-02T07:21:45.211Z,12.50
2024-03-02T07:24:47.409Z,12.60
2024-03-02T07:27:49.704Z,12.60
2024-03-02T07:31:02.468Z,12.70
2024-03-02T07:34:04.773Z,12.90
2024-03-02T07:37:07.258Z,13.20
2024-03-02T07:40:13.623Z,13.50
2024-03-02T07:43:15.747Z,13.90
2024-03-02T07:46:18.998Z,14.20
2024-03-02T07:49:22.095Z,14.50
2024-03-02T07:52:24.653Z,14.90
2024-03-02T07:55:27.661Z,15.20
2024-03-02T07:58:31.840Z,15.40
2024-03-02T08:01:34.477Z,15.70
2024-03-02T08:04:37.892Z,15.90
2024-03-02T08:07:40.360Z,16.10
2024-03-02T08:10:47.126Z,16.20
2024-03-02T08:13:55.020Z,16.30
2024-03-02T08:17:02.967Z,16.50
2024-03-02T08:20:06.390Z,16.30
2024-03-02T08:23:09.500Z,16.30
2024-03-02T08:26:12.672Z,16.30
2024-03-02T08:29:14.986Z,16.30
2024-03-02T08:32:18.599Z,16.30
2024-03-02T08:35:20.774Z,16.40
2024-03-02T08:38:23.065Z,16.40
2024-03-02T08:41:25.186Z,16.30
2024-03-02T08:44:27.245Z,16.40
2024-03-02T08:47:29.553Z,16.50
2024-03-02T08:50:31.688Z,16.50
2024-03-02T08:53:33.802Z,16.80
2024-03-02T08:56:37.638Z,17.40
2024-03-02T08:59:40.365Z,18.00
2024-03-02T09:02:42.568Z,18.40
2024-03-02T09:05:44.901Z,18.40
2024-03-02T09:08:47.379Z,18.30
2024-03-02T09:11:50.469Z,18.20
2024-03-02T09:14:54.028Z,18.20
2024-03-02T09:17:58.820Z,18.20
2024-03-02T09:21:01.108Z,18.20
2024-03-02T09:24:04.969Z,18.20
2024-03-02T09:27:07.060Z,18.00
2024-03-02T09:30:10.739Z,17.80
2024-03-02T09:36:24.733Z,17.50
2024-03-02T09:39:26.854Z,17.40
2024-03-02T09:42:29.495Z,17.50
2024-03-02T09:45:32.492Z,17.90
2024-03-02T09:48:34.713Z,18.50
2024-03-02T09:51:38.482Z,18.80
2024-03-02T09:54:41.098Z,19.30
2024-03-02T09:57:44.256Z,19.90
2024-03-02T10:00:46.575Z,20.80
2024-03-02T10:03:52.740Z,21.80
2024-03-02T10:07:17.756Z,23.00
2024-03-02T10:10:20.131Z,24.30
2024-03-02T10:13:26.598Z,24.90
2024-03-02T10:16:28.812Z,24.80
2024-03-02T10:19:34.428Z,24.80
2024-03-02T10:22:36.624Z,24.30
2024-03-02T10:25:44.032Z,23.90
2024-03-02T10:29:00.627Z,24.20
2024-03-02T10:32:04.128Z,24.50
2024-03-02T10:35:07.847Z,24.40
2024-03-02T10:38:13.065Z,24.00
2024-03-02T10:41:25.486Z,23.60
2024-03-02T10:44:28.483Z,22.70
2024-03-02T10:47:32.494Z,21.70
2024-03-02T10:50:34.679Z,20.90
2024-03-02T10:53:37.396Z,20.00
2024-03-02T10:56:43.789Z,19.60
2024-03-02T10:59:54.423Z,19.60
2024-03-02T11:02:59.267Z,19.50
2024-03-02T11:06:07.699Z,19.70
2024-03-02T11:09:11.791Z,20.50
2024-03-02T11:12:14.667Z,21.30
2024-03-02T11:15:22.798Z,22.20
2024-03-02T11:18:25.389Z,22.30
2024-03-02T11:21:27.810Z,21.70
2024-03-02T11:24:38.522Z,21.50
2024-03-02T11:28:03.005Z,21.50
2024-03-02T11:31:05.583Z,21.10
2024-03-02T11:34:37.405Z,20.50
2024-03-02T11:37:40.143Z,20.00
2024-03-02T11:40:42.621Z,19.50
2024-03-02T11:43:45.777Z,19.40
2024-03-02T11:46:54.896Z,19.30
2024-03-02T11:49:56.992Z,19.10
2024-03-02T11:53:00.395Z,19.00
2024-03-02T11:56:03.630Z,19.00
2024-03-02T11:59:07.016Z,19.00
2024-03-02T12:02:17.323Z,18.90
2024-03-02T12:05:20.382Z,18.80
2024-03-02T12:08:23.267Z,18.70
2024-03-02T12:11:25.399Z,18.40
2024-03-02T12:14:30.178Z,18.50
2024-03-02T12:17:32.323Z,18.50
2024-03-02T12:20:35.367Z,18.40
2024-03-02T12:23:37.753Z,18.40
2024-03-02T12:26:40.030Z,18.50
2024-03-02T12:29:42.548Z,18.40
2024-03-02T12:32:45.621Z,18.60
2024-03-02T12:35:48.235Z,18.60
2024-03-02T12:38:54.194Z,18.30
2024-03-02T12:41:56.665Z,18.20
2024-03-02T12:44:58.749Z,18.30
2024-03-02T12:48:03.086Z,18.30
2024-03-02T12:51:05.471Z,18.40
2024-03-02T12:54:12.055Z,18.40
2024-03-02T12:57:19.481Z,18.70
2024-03-02T13:00:23.746Z,18.90
2024-03-02T13:03:26.321Z,18.90
2024-03-02T13:06:29.417Z,18.80
2024-03-02T13:09:32.700Z,18.70
2024-03-02T13:12:35.575Z,18.60
2024-03-02T13:15:40.780Z,18.50
2024-03-02T13:18:43.631Z,18.50
2024-03-02T13:21:46.002Z,18.50
2024-03-02T13:24:48.551Z,18.10
2024-03-02T13:27:50.641Z,17.90
2024-03-02T13:30:52.963Z,18.00
2024-03-02T13:33:55.059Z,18.00
2024-03-02T13:36:57.358Z,18.30
2024-03-02T13:39:59.523Z,18.60
2024-03-02T13:43:01.952Z,18.80
2024-03-02T13:46:04.301Z,18.70
2024-03-02T13:49:06.894Z,18.30
2024-03-02T13:52:12.365Z,18.20
2024-03-02T13:55:15.168Z,17.90
2024-03-02T13:58:17.369Z,17.90
2024-03-02T14:01:19.871Z,18.00
2024-03-02T14:04:22.106Z,18.20
2024-03-02T14:07:24.693Z,18.30
2024-03-02T14:10:26.821Z,18.70
2024-03-02T14:13:29.029Z,18.60
2024-03-02T14:16:31.235Z,18.40
2024-03-02T14:19:33.726Z,18.60
2024-03-02T14:22:35.784Z,18.60
2024-03-02T14:25:38.007Z,18.50
2024-03-02T14:28:49.488Z,18.50
2024-03-02T14:31:53.781Z,18.40
2024-03-02T14:34:56.620Z,18.50
2024-03-02T14:37:59.152Z,18.60
2024-03-02T14:41:01.302Z,18.30
2024-03-02T14:44:03.759Z,18.10
2024-03-02T14:47:06.424Z,18.10
2024-03-02T14:50:10.161Z,18.10
2024-03-02T14:53:12.434Z,18.00
2024-03-02T14:56:15.329Z,18.10
2024-03-02T14:59:17.440Z,18.20
2024-03-02T15:02:19.643Z,18.10
2024-03-02T15:05:21.795Z,18.10
2024-03-02T15:08:23.973Z,18.00
2024-03-02T15:11:26.370Z,17.90
2024-03-02T15:14:28.919Z,17.80
2024-03-02T15:17:31.520Z,17.80
2024-03-02T15:20:33.689Z,17.80
2024-03-02T15:23:35.985Z,17.90
2024-03-02T15:26:38.227Z,18.00
2024-03-02T15:29:41.249Z,18.00
2024-03-02T15:32:43.533Z,17.90
2024-03-02T15:35:45.706Z,17.90
2024-03-02T15:38:48.298Z,17.80
2024-03-02T15:41:50.370Z,17.60
2024-03-02T15:44:52.526Z,17.40
2024-03-02T15:47:54.648Z,17.30
2024-03-02T15:50:57.097Z,17.10
2024-03-02T15:53:59.350Z,17.20
2024-03-02T15:57:04.542Z,17.00
2024-03-02T16:00:07.833Z,17.00
2024-03-02T16:03:09.971Z,16.80
2024-03-02T16:06:12.163Z,16.50
2024-03-02T16:09:14.360Z,16.20
2024-03-02T16:12:16.812Z,15.80
2024-03-02T16:15:19.034Z,15.50
2024-03-02T16:18:21.861Z,15.30
2024-03-02T16:21:26.533Z,15.10
2024-03-02T16:24:28.674Z,14.90
2024-03-02T16:27:31.058Z,14.70
2024-03-02T16:30:33.417Z,14.80
2024-03-02T16:33:36.108Z,14.80
2024-03-02T16:36:39.385Z,14.80
2024-03-02T16:39:41.960Z,14.90
2024-03-02T16:42:44.132Z,14.90
2024-03-02T16:45:47.131Z,15.00
2024-03-02T16:48:49.336Z,15.00
2024-03-02T16:51:51.539Z,14.90
2024-03-02T16:54:53.683Z,14.90
2024-03-02T16:57:55.963Z,14.80
2024-03-02T17:00:58.278Z,14.60
2024-03-02T17:04:00.747Z,14.50
2024-03-02T17:07:03.006Z,14.50
2024-03-02T17:10:05.897Z,14.50
2024-03-02T17:13:09.104Z,14.40
2024-03-02T17:16:15.435Z,14.30
2024-03-02T17:19:17.908Z,14.30
2024-03-02T17:22:20.110Z,14.20
2024-03-02T17:25:22.521Z,14.20
2024-03-02T17:28:28.748Z,14.10
2024-03-02T17:31:32.510Z,14.20
2024-03-02T17:34:34.796Z,14.20
2024-03-02T17:37:39.865Z,14.30
2024-03-02T17:40:42.199Z,14.20
2024-03-02T17:43:44.382Z,14.20
2024-03-02T17:46:46.548Z,14.20
2024-03-02T17:49:48.905Z,14.00
2024-03-02T17:52:51.228Z,13.90
2024-03-02T17:55:53.421Z,14.00
2024-03-02T17:58:56.189Z,14.00
2024-03-02T18:01:59.047Z,14.00
2024-03-02T18:05:01.407Z,14.00
2024-03-02T18:08:03.566Z,14.00
2024-03-02T18:11:07.935Z,14.00
2024-03-02T18:14:10.131Z,13.90
2024-03-02T18:17:13.172Z,13.90
2024-03-02T18:20:15.409Z,13.80
2024-03-02T18:23:17.653Z,13.70
2024-03-02T18:26:22.652Z,13.70
2024-03-02T18:29:25.623Z,13.70
2024-03-02T18:32:28.130Z,13.50
2024-03-02T18:35:30.311Z,13.50
2024-03-02T18:38:32.388Z,13.50
2024-03-02T18:41:34.741Z,13.50
2024-03-02T18:44:37.313Z,13.40
2024-03-02T18:47:40.436Z,13.40
2024-03-02T18:50:42.566Z,13.40
2024-03-02T18:53:45.618Z,13.30
2024-03-02T18:56:47.854Z,13.30
2024-03-02T18:59:49.896Z,13.40
2024-03-02T19:02:51.990Z,13.30
2024-03-02T19:05:54.241Z,13.30
2024-03-02T19:08:56.519Z,13.30
2024-03-02T19:11:58.746Z,13.30
2024-03-02T19:15:02.245Z,13.30
2024-03-02T19:18:04.847Z,13.30
2024-03-02T19:21:07.576Z,13.30
2024-03-02T19:24:09.940Z,13.20
2024-03-02T19:27:12.545Z,13.20
2024-03-02T19:30:14.849Z,13.20
2024-03-02T19:33:17.155Z,13.10
2024-03-02T19:36:19.393Z,13.10
2024-03-02T19:39:27.517Z,13.00
2024-03-02T19:42:33.136Z,13.10
2024-03-02T19:45:35.480Z,13.00
2024-03-02T19:48:38.368Z,13.00
2024-03-02T19:51:40.487Z,13.00
2024-03-02T19:54:42.818Z,13.00
2024-03-02T19:57:48.130Z,13.00
2024-03-02T20:00:50.307Z,13.00
2024-03-02T20:03:52.423Z,13.10
2024-03-02T20:06:55.754Z,13.20
2024-03-02T20:09:58.107Z,13.20
2024-03-02T20:13:01.828Z,13.20
2024-03-02T20:16:09.679Z,13.20
2024-03-02T20:19:12.221Z,13.20
2024-03-02T20:22:14.598Z,13.30
2024-03-02T20:25:17.555Z,13.30
2024-03-02T20:28:21.159Z,13.30
2024-03-02T20:31:23.510Z,13.30
2024-03-02T20:34:26.424Z,13.20
2024-03-02T20:37:29.325Z,13.20
2024-03-02T20:40:31.469Z,13.10
2024-03-02T20:43:36.185Z,13.20
2024-03-02T20:46:38.193Z,13.10
2024-03-02T20:49:43.801Z,13.10
2024-03-02T20:52:48.737Z,13.10
2024-03-02T20:55:51.145Z,13.10
2024-03-02T20:58:53.517Z,13.00
2024-03-02T21:01:56.549Z,13.00
2024-03-02T21:04:58.841Z,12.90
2024-03-02T21:08:02.415Z,12.80
2024-03-02T21:11:04.955Z,12.70
2024-03-02T21:14:07.125Z,12.70
2024-03-02T21:17:09.329Z,12.60
2024-03-02T21:20:11.859Z,12.60
2024-03-02T21:23:16.273Z,12.60
2024-03-02T21:26:18.399Z,12.60
2024-03-02T21:29:21.325Z,12.50
2024-03-02T21:32:23.409Z,12.50
2024-03-02T21:35:25.588Z,12.40
2024-03-02T21:38:27.583Z,12.40
2024-03-02T21:41:30.291Z,12.30
2024-03-02T21:44:33.393Z,12.20
2024-03-02T21:47:35.645Z,12.20
2024-03-02T21:50:37.810Z,12.20
2024-03-02T21:53:39.925Z,12.10
2024-03-02T21:56:41.995Z,12.10
2024-03-02T21:59:44.159Z,12.00
2024-03-02T22:02:49.195Z,12.00
2024-03-02T22:05:51.639Z,12.00
2024-03-02T22:08:53.730Z,12.10
2024-03-02T22:11:56.170Z,12.10
2024-03-02T22:14:58.325Z,12.10
2024-03-02T22:18:04.475Z,12.20
2024-03-02T22:21:08.382Z,12.20
2024-03-02T22:24:14.795Z,12.20
2024-03-02T22:27:17.008Z,12.20
2024-03-02T22:30:19.917Z,12.30
2024-03-02T22:33:21.998Z,12.00
2024-03-02T22:36:24.184Z,12.00
2024-03-02T22:39:26.521Z,11.90
2024-03-02T22:42:30.268Z,11.90
2024-03-02T22:45:33.806Z,11.80
2024-03-02T22:48:40.293Z,11.80
2024-03-02T22:51:42.539Z,11.80
2024-03-02T22:54:44.862Z,11.70
2024-03-02T22:57:48.165Z,11.70
2024-03-02T23:00:50.603Z,11.60
2024-03-02T23:03:52.863Z,11.60
2024-03-02T23:06:54.983Z,11.50
2024-03-02T23:09:59.051Z,11.60
2024-03-02T23:13:01.430Z,11.60
2024-03-02T23:16:04.441Z,11.60
2024-03-02T23:19:06.956Z,11.70
2024-03-02T23:22:09.847Z,11.70
2024-03-02T23:25:12.144Z,11.80
2024-03-02T23:28:14.605Z,11.80
2024-03-02T23:31:17.099Z,11.80
2024-03-02T23:34:19.232Z,11.80
2024-03-02T23:37:21.514Z,11.70
2024-03-02T23:40:41.994Z,11.70
2024-03-02T23:43:44.158Z,11.60
2024-03-02T23:46:46.159Z,11.50
2024-03-02T23:49:48.689Z,11.40
2024-03-02T23:52:50.728Z,11.30
2024-03-02T23:55:53.413Z,11.20
2024-03-02T23:58:56.387Z,11.20
